sensor_id;sensor_type;location;lat;lon;timestamp;pressure;altitude;pressure_sealevel;temperature;humidity
65173;BME280;69059;52.218;5.172;2023-05-14T09:56:07;100390.41;;;21.07;100.00
65173;BME280;69059;52.218;5.172;2023-05-14T09:58:35;100480.25;;;21.26;100.00
65173;BME280;69059;52.218;5.172;2023-05-14T10:01:03;100510.44;;;21.15;100.00
65173;BME280;69059;52.218;5.172;2023-05-14T10:03:32;100573.00;;;21.42;100.00
65173;BME280;69059;52.218;5.172;2023-05-14T10:06:03;100547.44;;;21.31;100.00
65173;BME280;69059;52.218;5.172;2023-05-14T10:08:34;100575.84;;;21.26;100.00
65173;BME280;69059;52.218;5.172;2023-05-14T10:11:04;100664.19;;;21.53;100.00
65173;BME280;69059;52.218;5.172;2023-05-14T10:13:38;100671.56;;;21.83;100.00
65173;BME280;69059;52.218;5.172;2023-05-14T10:16:10;100679.97;;;22.07;100.00
65173;BME280;69059;52.218;5.172;2023-05-14T10:18:42;100683.34;;;22.39;100.00
65173;BME280;69059;52.218;5.172;2023-05-14T10:21:14;100654.16;;;22.65;100.00
65173;BME280;69059;52.218;5.172;2023-05-14T10:23:44;100648.88;;;22.75;100.00
65173;BME280;69059;52.218;5.172;2023-05-14T10:26:13;100664.59;;;22.81;100.00
65173;BME280;69059;52.218;5.172;2023-05-14T10:28:42;100665.19;;;23.04;100.00
65173;BME280;69059;52.218;5.172;2023-05-14T10:31:11;100637.50;;;23.05;100.00
65173;BME280;69059;52.218;5.172;2023-05-14T10:33:45;100642.56;;;23.21;100.00
65173;BME280;69059;52.218;5.172;2023-05-14T10:36:16;100626.56;;;23.21;100.00
65173;BME280;69059;52.218;5.172;2023-05-14T10:38:44;100610.84;;;23.20;100.00
65173;BME280;69059;52.218;5.172;2023-05-14T10:41:13;100615.41;;;23.14;100.00
65173;BME280;69059;52.218;5.172;2023-05-14T10:43:44;100619.13;;;23.34;100.00
65173;BME280;69059;52.218;5.172;2023-05-14T10:46:13;100608.47;;;23.39;100.00
65173;BME280;69059;52.218;5.172;2023-05-14T10:48:42;100598.09;;;23.42;100.00
65173;BME280;69059;52.218;5.172;2023-05-14T10:51:10;100613.25;;;23.47;100.00
65173;BME280;69059;52.218;5.172;2023-05-14T10:53:40;100615.91;;;23.62;100.00
65173;BME280;69059;52.218;5.172;2023-05-14T10:56:10;100603.34;;;23.78;100.00
65173;BME280;69059;52.218;5.172;2023-05-14T10:58:41;100619.59;;;23.81;100.00
65173;BME280;69059;52.218;5.172;2023-05-14T11:01:11;100613.41;;;24.01;100.00
65173;BME280;69059;52.218;5.172;2023-05-14T11:03:40;100618.97;;;24.10;100.00
65173;BME280;69059;52.218;5.172;2023-05-14T11:06:09;100656.03;;;24.11;100.00
65173;BME280;69059;52.218;5.172;2023-05-14T11:08:38;100708.06;;;23.99;100.00
65173;BME280;69059;52.218;5.172;2023-05-14T11:11:08;100648.13;;;23.91;100.00
65173;BME280;69059;52.218;5.172;2023-05-14T11:13:35;100652.34;;;23.97;100.00
65173;BME280;69059;52.218;5.172;2023-05-14T11:16:04;100651.50;;;24.12;100.00
65173;BME280;69059;52.218;5.172;2023-05-14T11:18:37;100639.22;;;24.16;100.00
65173;BME280;69059;52.218;5.172;2023-05-14T11:21:07;100651.50;;;24.17;100.00
65173;BME280;69059;52.218;5.172;2023-05-14T11:23:35;100677.72;;;23.89;100.00
65173;BME280;69059;52.218;5.172;2023-05-14T11:26:03;100653.09;;;24.08;100.00
65173;BME280;69059;52.218;5.172;2023-05-14T11:28:30;100732.34;;;23.97;100.00
65173;BME280;69059;52.218;5.172;2023-05-14T11:30:58;100745.94;;;24.01;100.00
65173;BME280;69059;52.218;5.172;2023-05-14T11:33:26;100672.03;;;24.26;100.00
65173;BME280;69059;52.218;5.172;2023-05-14T11:35:55;100672.69;;;24.57;100.00
65173;BME280;69059;52.218;5.172;2023-05-14T11:38:23;100783.69;;;24.63;100.00
65173;BME280;69059;52.218;5.172;2023-05-14T11:40:51;101021.25;;;24.48;100.00
65173;BME280;69059;52.218;5.172;2023-05-14T11:43:19;100935.06;;;24.38;100.00
65173;BME280;69059;52.218;5.172;2023-05-14T11:45:49;100885.09;;;24.74;100.00
65173;BME280;69059;52.218;5.172;2023-05-14T11:48:18;100966.22;;;25.13;100.00
65173;BME280;69059;52.218;5.172;2023-05-14T11:50:46;100900.44;;;25.32;100.00
65173;BME280;69059;52.218;5.172;2023-05-14T11:53:23;101070.88;;;25.46;100.00
65173;BME280;69059;52.218;5.172;2023-05-14T11:55:52;101269.44;;;25.36;100.00
65173;BME280;69059;52.218;5.172;2023-05-14T11:58:20;101332.63;;;25.83;100.00
65173;BME280;69059;52.218;5.172;2023-05-14T12:00:49;101324.31;;;25.94;100.00
65173;BME280;69059;52.218;5.172;2023-05-14T12:03:17;101423.31;;;26.15;100.00
65173;BME280;69059;52.218;5.172;2023-05-14T12:05:55;101442.06;;;26.30;100.00
65173;BME280;69059;52.218;5.172;2023-05-14T12:08:28;101505.03;;;24.39;100.00
65173;BME280;69059;52.218;5.172;2023-05-14T12:10:57;101253.09;;;25.02;100.00
65173;BME280;69059;52.218;5.172;2023-05-14T12:13:26;101425.94;;;24.64;100.00
65173;BME280;69059;52.218;5.172;2023-05-14T12:15:56;101272.59;;;25.03;100.00
65173;BME280;69059;52.218;5.172;2023-05-14T12:18:24;101387.09;;;25.51;100.00
65173;BME280;69059;52.218;5.172;2023-05-14T12:20:54;101376.13;;;25.43;100.00
65173;BME280;69059;52.218;5.172;2023-05-14T12:23:26;101321.34;;;25.45;100.00
65173;BME280;69059;52.218;5.172;2023-05-14T12:26:00;101297.31;;;25.81;100.00
65173;BME280;69059;52.218;5.172;2023-05-14T12:28:29;101310.69;;;25.96;100.00
65173;BME280;69059;52.218;5.172;2023-05-14T12:30:57;101341.66;;;26.27;100.00
65173;BME280;69059;52.218;5.172;2023-05-14T12:33:25;101438.28;;;26.61;100.00
65173;BME280;69059;52.218;5.172;2023-05-14T12:35:53;101496.94;;;26.37;100.00
65173;BME280;69059;52.218;5.172;2023-05-14T12:38:27;101510.31;;;26.53;100.00
65173;BME280;69059;52.218;5.172;2023-05-14T12:40:55;101522.91;;;26.77;100.00
65173;BME280;69059;52.218;5.172;2023-05-14T12:43:22;101556.66;;;26.58;100.00
65173;BME280;69059;52.218;5.172;2023-05-14T12:45:50;101503.84;;;26.13;100.00
65173;BME280;69059;52.218;5.172;2023-05-14T12:48:18;101507.09;;;26.81;100.00
65173;BME280;69059;52.218;5.172;2023-05-14T12:50:46;101559.84;;;27.21;100.00
65173;BME280;69059;52.218;5.172;2023-05-14T12:53:14;101499.66;;;27.53;100.00
65173;BME280;69059;52.218;5.172;2023-05-14T12:55:43;101586.03;;;27.60;100.00
65173;BME280;69059;52.218;5.172;2023-05-14T12:58:11;101553.69;;;26.50;100.00
65173;BME280;69059;52.218;5.172;2023-05-14T13:00:39;101490.19;;;27.06;100.00
65173;BME280;69059;52.218;5.172;2023-05-14T13:03:07;101530.22;;;27.62;100.00
65173;BME280;69059;52.218;5.172;2023-05-14T13:05:34;101598.41;;;27.30;100.00
65173;BME280;69059;52.218;5.172;2023-05-14T13:08:02;101513.47;;;27.10;100.00
65173;BME280;69059;52.218;5.172;2023-05-14T13:10:30;101550.22;;;26.80;100.00
65173;BME280;69059;52.218;5.172;2023-05-14T13:12:59;101578.63;;;27.01;100.00
65173;BME280;69059;52.218;5.172;2023-05-14T13:15:28;101577.78;;;27.26;100.00
65173;BME280;69059;52.218;5.172;2023-05-14T13:17:57;101578.59;;;27.31;100.00
65173;BME280;69059;52.218;5.172;2023-05-14T13:20:24;101548.63;;;27.04;100.00
65173;BME280;69059;52.218;5.172;2023-05-14T13:22:52;101520.94;;;27.29;100.00
65173;BME280;69059;52.218;5.172;2023-05-14T13:25:20;101540.56;;;27.19;100.00
65173;BME280;69059;52.218;5.172;2023-05-14T13:27:48;101559.59;;;27.07;100.00
65173;BME280;69059;52.218;5.172;2023-05-14T13:30:18;101585.03;;;27.25;100.00
65173;BME280;69059;52.218;5.172;2023-05-14T13:32:46;101610.50;;;27.18;100.00
65173;BME280;69059;52.218;5.172;2023-05-14T13:35:14;101590.66;;;27.19;100.00
65173;BME280;69059;52.218;5.172;2023-05-14T13:37:43;101579.16;;;26.77;100.00
65173;BME280;69059;52.218;5.172;2023-05-14T13:40:10;101559.06;;;26.75;100.00
65173;BME280;69059;52.218;5.172;2023-05-14T13:42:38;101522.63;;;26.99;100.00
65173;BME280;69059;52.218;5.172;2023-05-14T13:45:07;101483.50;;;27.08;100.00
65173;BME280;69059;52.218;5.172;2023-05-14T13:47:36;101591.75;;;27.07;100.00
65173;BME280;69059;52.218;5.172;2023-05-14T13:50:06;101470.97;;;26.68;100.00
65173;BME280;69059;52.218;5.172;2023-05-14T13:52:34;101501.13;;;27.25;100.00
65173;BME280;69059;52.218;5.172;2023-05-14T13:55:03;101509.16;;;27.30;100.00
65173;BME280;69059;52.218;5.172;2023-05-14T13:57:31;101523.72;;;26.83;100.00
65173;BME280;69059;52.218;5.172;2023-05-14T13:59:59;101507.63;;;26.83;100.00
65173;BME280;69059;52.218;5.172;2023-05-14T14:02:27;101543.25;;;26.53;100.00
65173;BME280;69059;52.218;5.172;2023-05-14T14:04:58;101483.78;;;27.02;100.00
65173;BME280;69059;52.218;5.172;2023-05-14T14:07:26;101484.53;;;27.23;100.00
65173;BME280;69059;52.218;5.172;2023-05-14T14:09:54;101492.47;;;27.48;100.00
65173;BME280;69059;52.218;5.172;2023-05-14T14:12:21;101517.03;;;27.75;100.00
65173;BME280;69059;52.218;5.172;2023-05-14T14:14:49;101493.16;;;27.74;100.00
65173;BME280;69059;52.218;5.172;2023-05-14T14:17:17;101508.47;;;27.68;100.00
65173;BME280;69059;52.218;5.172;2023-05-14T14:19:45;101527.09;;;27.34;100.00
65173;BME280;69059;52.218;5.172;2023-05-14T14:22:14;101479.59;;;27.45;100.00
65173;BME280;69059;52.218;5.172;2023-05-14T14:24:42;101478.44;;;27.71;100.00
65173;BME280;69059;52.218;5.172;2023-05-14T14:27:10;101495.09;;;27.63;100.00
65173;BME280;69059;52.218;5.172;2023-05-14T14:29:38;101511.25;;;27.43;100.00
65173;BME280;69059;52.218;5.172;2023-05-14T14:32:06;101494.75;;;27.05;100.00
65173;BME280;69059;52.218;5.172;2023-05-14T14:34:34;101500.69;;;26.97;100.00
65173;BME280;69059;52.218;5.172;2023-05-14T14:37:02;101471.44;;;26.86;100.00
65173;BME280;69059;52.218;5.172;2023-05-14T14:39:31;101484.31;;;26.89;100.00
65173;BME280;69059;52.218;5.172;2023-05-14T14:41:58;101474.16;;;26.75;100.00
65173;BME280;69059;52.218;5.172;2023-05-14T14:44:26;101482.22;;;26.45;100.00
65173;BME280;69059;52.218;5.172;2023-05-14T14:46:54;101461.31;;;26.52;100.00
65173;BME280;69059;52.218;5.172;2023-05-14T14:49:22;101453.56;;;26.56;100.00
65173;BME280;69059;52.218;5.172;2023-05-14T14:51:49;101482.75;;;26.57;100.00
65173;BME280;69059;52.218;5.172;2023-05-14T14:54:17;101486.75;;;26.60;100.00
65173;BME280;69059;52.218;5.172;2023-05-14T14:56:46;101522.09;;;26.42;100.00
65173;BME280;69059;52.218;5.172;2023-05-14T14:59:17;101487.84;;;26.33;100.00
65173;BME280;69059;52.218;5.172;2023-05-14T15:01:45;101483.28;;;26.29;100.00
65173;BME280;69059;52.218;5.172;2023-05-14T15:04:13;101497.13;;;26.11;100.00
65173;BME280;69059;52.218;5.172;2023-05-14T15:06:41;101478.38;;;25.80;100.00
65173;BME280;69059;52.218;5.172;2023-05-14T15:09:08;101471.44;;;25.89;100.00
65173;BME280;69059;52.218;5.172;2023-05-14T15:11:36;101477.03;;;25.78;100.00
65173;BME280;69059;52.218;5.172;2023-05-14T15:14:05;101482.09;;;25.74;100.00
65173;BME280;69059;52.218;5.172;2023-05-14T15:16:33;101496.25;;;25.64;100.00
65173;BME280;69059;52.218;5.172;2023-05-14T15:19:01;101521.94;;;25.23;100.00
65173;BME280;69059;52.218;5.172;2023-05-14T15:21:29;101518.31;;;24.97;100.00
65173;BME280;69059;52.218;5.172;2023-05-14T15:23:57;101524.00;;;24.74;100.00
65173;BME280;69059;52.218;5.172;2023-05-14T15:26:25;101477.53;;;24.75;100.00
65173;BME280;69059;52.218;5.172;2023-05-14T15:28:52;101505.00;;;24.71;100.00
65173;BME280;69059;52.218;5.172;2023-05-14T15:31:22;101513.53;;;24.68;100.00
65173;BME280;69059;52.218;5.172;2023-05-14T15:33:50;101512.22;;;24.38;100.00
65173;BME280;69059;52.218;5.172;2023-05-14T15:36:18;101544.31;;;24.43;100.00
65173;BME280;69059;52.218;5.172;2023-05-14T15:38:46;101525.03;;;23.87;100.00
65173;BME280;69059;52.218;5.172;2023-05-14T15:41:14;101495.25;;;24.22;100.00
65173;BME280;69059;52.218;5.172;2023-05-14T15:43:41;101508.78;;;24.16;100.00
65173;BME280;69059;52.218;5.172;2023-05-14T15:46:10;101497.00;;;24.12;100.00
65173;BME280;69059;52.218;5.172;2023-05-14T15:48:39;101449.66;;;24.24;100.00
65173;BME280;69059;52.218;5.172;2023-05-14T15:51:07;101440.66;;;24.30;100.00
65173;BME280;69059;52.218;5.172;2023-05-14T15:53:35;101416.91;;;24.34;100.00
65173;BME280;69059;52.218;5.172;2023-05-14T15:56:03;101397.97;;;24.30;100.00
65173;BME280;69059;52.218;5.172;2023-05-14T15:58:31;101394.34;;;24.14;100.00
65173;BME280;69059;52.218;5.172;2023-05-14T16:00:58;101394.50;;;24.03;100.00
65173;BME280;69059;52.218;5.172;2023-05-14T16:03:26;101383.06;;;23.75;100.00
65173;BME280;69059;52.218;5.172;2023-05-14T16:05:56;101372.53;;;23.64;100.00
65173;BME280;69059;52.218;5.172;2023-05-14T16:08:23;101331.31;;;23.49;100.00
65173;BME280;69059;52.218;5.172;2023-05-14T16:10:51;101284.50;;;23.32;100.00
65173;BME280;69059;52.218;5.172;2023-05-14T16:13:19;101308.34;;;23.43;100.00
65173;BME280;69059;52.218;5.172;2023-05-14T16:15:46;101317.88;;;23.12;100.00
65173;BME280;69059;52.218;5.172;2023-05-14T16:18:14;101288.97;;;22.99;100.00
65173;BME280;69059;52.218;5.172;2023-05-14T16:20:42;101264.41;;;22.92;100.00
65173;BME280;69059;52.218;5.172;2023-05-14T16:23:12;101218.28;;;22.65;100.00
65173;BME280;69059;52.218;5.172;2023-05-14T16:25:39;101218.56;;;22.68;100.00
65173;BME280;69059;52.218;5.172;2023-05-14T16:28:07;101185.00;;;22.40;100.00
65173;BME280;69059;52.218;5.172;2023-05-14T16:30:35;101157.88;;;22.43;100.00
65173;BME280;69059;52.218;5.172;2023-05-14T16:33:03;101114.00;;;22.19;100.00
65173;BME280;69059;52.218;5.172;2023-05-14T16:35:31;101133.00;;;22.28;100.00
65173;BME280;69059;52.218;5.172;2023-05-14T16:37:59;101115.97;;;22.07;100.00
65173;BME280;69059;52.218;5.172;2023-05-14T16:40:28;101119.38;;;22.02;100.00
65173;BME280;69059;52.218;5.172;2023-05-14T16:42:56;101082.63;;;21.77;100.00
65173;BME280;69059;52.218;5.172;2023-05-14T16:45:24;101043.63;;;21.61;100.00
65173;BME280;69059;52.218;5.172;2023-05-14T16:47:52;101001.47;;;21.48;100.00
65173;BME280;69059;52.218;5.172;2023-05-14T16:50:20;100969.00;;;21.07;100.00
65173;BME280;69059;52.218;5.172;2023-05-14T16:52:47;100906.47;;;20.95;100.00
65173;BME280;69059;52.218;5.172;2023-05-14T16:55:15;100851.91;;;20.82;100.00
65173;BME280;69059;52.218;5.172;2023-05-14T16:57:46;100776.25;;;20.80;100.00
65173;BME280;69059;52.218;5.172;2023-05-14T17:00:15;100758.28;;;20.65;100.00
65173;BME280;69059;52.218;5.172;2023-05-14T17:02:43;100720.63;;;20.63;100.00
65173;BME280;69059;52.218;5.172;2023-05-14T17:05:14;100690.25;;;20.54;100.00
65173;BME280;69059;52.218;5.172;2023-05-14T17:07:42;100645.97;;;20.32;100.00
65173;BME280;69059;52.218;5.172;2023-05-14T17:10:10;100613.91;;;20.34;100.00
65173;BME280;69059;52.218;5.172;2023-05-14T17:12:38;100618.16;;;20.35;100.00
65173;BME280;69059;52.218;5.172;2023-05-14T17:15:08;100599.53;;;20.08;100.00
65173;BME280;69059;52.218;5.172;2023-05-14T17:17:36;100587.00;;;20.03;100.00
65173;BME280;69059;52.218;5.172;2023-05-14T17:20:04;100589.50;;;19.88;100.00
65173;BME280;69059;52.218;5.172;2023-05-14T17:22:32;100579.28;;;19.58;100.00
65173;BME280;69059;52.218;5.172;2023-05-14T17:25:01;100568.34;;;19.55;100.00
65173;BME280;69059;52.218;5.172;2023-05-14T17:27:29;100537.13;;;19.40;100.00
65173;BME280;69059;52.218;5.172;2023-05-14T17:29:59;100533.78;;;19.28;100.00
65173;BME280;69059;52.218;5.172;2023-05-14T17:32:28;100508.22;;;19.33;100.00
65173;BME280;69059;52.218;5.172;2023-05-14T17:34:57;100503.16;;;19.32;100.00
65173;BME280;69059;52.218;5.172;2023-05-14T17:37:24;100506.84;;;19.14;100.00
65173;BME280;69059;52.218;5.172;2023-05-14T17:39:52;100508.50;;;18.99;100.00
65173;BME280;69059;52.218;5.172;2023-05-14T17:42:20;100491.91;;;18.86;100.00
65173;BME280;69059;52.218;5.172;2023-05-14T17:44:48;100474.88;;;18.66;100.00
65173;BME280;69059;52.218;5.172;2023-05-14T17:47:16;100455.56;;;18.65;100.00
65173;BME280;69059;52.218;5.172;2023-05-14T17:49:47;100446.69;;;18.71;100.00
65173;BME280;69059;52.218;5.172;2023-05-14T17:52:16;100452.47;;;18.68;100.00
65173;BME280;69059;52.218;5.172;2023-05-14T17:54:44;100459.47;;;18.46;100.00
65173;BME280;69059;52.218;5.172;2023-05-14T17:57:12;100449.84;;;18.40;100.00
65173;BME280;69059;52.218;5.172;2023-05-14T17:59:40;100447.44;;;18.38;100.00
65173;BME280;69059;52.218;5.172;2023-05-14T18:02:07;100448.63;;;18.31;100.00
65173;BME280;69059;52.218;5.172;2023-05-14T18:04:35;100456.75;;;18.12;100.00
65173;BME280;69059;52.218;5.172;2023-05-14T18:07:06;100439.22;;;18.06;100.00
65173;BME280;69059;52.218;5.172;2023-05-14T18:09:34;100429.16;;;17.92;100.00
65173;BME280;69059;52.218;5.172;2023-05-14T18:12:02;100424.84;;;17.85;100.00
65173;BME280;69059;52.218;5.172;2023-05-14T18:14:29;100420.91;;;17.88;100.00
65173;BME280;69059;52.218;5.172;2023-05-14T18:16:57;100414.56;;;17.72;100.00
65173;BME280;69059;52.218;5.172;2023-05-14T18:19:25;100416.28;;;17.67;100.00
65173;BME280;69059;52.218;5.172;2023-05-14T18:21:53;100401.91;;;17.63;100.00
65173;BME280;69059;52.218;5.172;2023-05-14T18:24:22;100402.06;;;17.56;100.00
65173;BME280;69059;52.218;5.172;2023-05-14T18:26:51;100412.28;;;17.52;100.00
65173;BME280;69059;52.218;5.172;2023-05-14T18:29:19;100418.81;;;17.50;100.00
65173;BME280;69059;52.218;5.172;2023-05-14T18:31:47;100421.03;;;17.41;100.00
65173;BME280;69059;52.218;5.172;2023-05-14T18:34:15;100424.84;;;17.34;100.00
65173;BME280;69059;52.218;5.172;2023-05-14T18:36:44;100417.25;;;17.26;100.00
65173;BME280;69059;52.218;5.172;2023-05-14T18:39:17;100417.19;;;17.09;100.00
65173;BME280;69059;52.218;5.172;2023-05-14T18:41:50;100411.78;;;16.92;100.00
65173;BME280;69059;52.218;5.172;2023-05-14T18:44:18;100413.94;;;16.72;100.00
65173;BME280;69059;52.218;5.172;2023-05-14T18:46:46;100402.28;;;16.68;100.00
65173;BME280;69059;52.218;5.172;2023-05-14T18:49:14;100391.03;;;16.72;100.00
65173;BME280;69059;52.218;5.172;2023-05-14T18:51:42;100389.91;;;16.68;100.00
65173;BME280;69059;52.218;5.172;2023-05-14T18:54:10;100395.94;;;16.45;100.00
65173;BME280;69059;52.218;5.172;2023-05-14T18:56:38;100396.81;;;16.39;100.00
65173;BME280;69059;52.218;5.172;2023-05-14T18:59:14;100393.16;;;16.40;100.00
65173;BME280;69059;52.218;5.172;2023-05-14T19:01:44;100384.66;;;16.38;100.00
65173;BME280;69059;52.218;5.172;2023-05-14T19:04:12;100384.84;;;16.13;100.00
65173;BME280;69059;52.218;5.172;2023-05-14T19:06:40;100364.50;;;16.21;100.00
65173;BME280;69059;52.218;5.172;2023-05-14T19:09:08;100355.78;;;16.20;100.00
65173;BME280;69059;52.218;5.172;2023-05-14T19:11:36;100345.78;;;16.10;100.00
65173;BME280;69059;52.218;5.172;2023-05-14T19:14:04;100333.44;;;16.11;100.00
65173;BME280;69059;52.218;5.172;2023-05-14T19:16:33;100332.63;;;16.10;100.00
65173;BME280;69059;52.218;5.172;2023-05-14T19:19:02;100331.28;;;16.20;100.00
65173;BME280;69059;52.218;5.172;2023-05-14T19:21:30;100332.66;;;16.34;100.00
65173;BME280;69059;52.218;5.172;2023-05-14T19:23:58;100339.53;;;16.35;100.00
65173;BME280;69059;52.218;5.172;2023-05-14T19:26:28;100342.16;;;16.35;100.00
65173;BME280;69059;52.218;5.172;2023-05-14T19:28:56;100349.25;;;16.23;100.00
65173;BME280;69059;52.218;5.172;2023-05-14T19:31:24;100346.34;;;16.01;100.00
65173;BME280;69059;52.218;5.172;2023-05-14T19:33:54;100334.03;;;15.83;100.00
65173;BME280;69059;52.218;5.172;2023-05-14T19:36:21;100312.63;;;15.68;100.00
65173;BME280;69059;52.218;5.172;2023-05-14T19:38:49;100291.88;;;15.60;100.00
65173;BME280;69059;52.218;5.172;2023-05-14T19:41:17;100276.97;;;15.54;100.00
65173;BME280;69059;52.218;5.172;2023-05-14T19:43:44;100258.97;;;15.51;100.00
65173;BME280;69059;52.218;5.172;2023-05-14T19:46:12;100238.84;;;15.45;100.00
65173;BME280;69059;52.218;5.172;2023-05-14T19:48:40;100224.53;;;15.40;100.00
65173;BME280;69059;52.218;5.172;2023-05-14T19:51:09;100219.06;;;15.42;100.00
65173;BME280;69059;52.218;5.172;2023-05-14T19:53:37;100207.94;;;15.40;100.00
65173;BME280;69059;52.218;5.172;2023-05-14T19:56:05;100202.31;;;15.36;100.00
65173;BME280;69059;52.218;5.172;2023-05-14T19:58:33;100195.94;;;15.32;100.00
65173;BME280;69059;52.218;5.172;2023-05-14T20:01:00;100166.50;;;15.24;100.00
65173;BME280;69059;52.218;5.172;2023-05-14T20:03:28;100171.31;;;15.27;100.00
65173;BME280;69059;52.218;5.172;2023-05-14T20:05:56;100158.59;;;15.24;100.00
65173;BME280;69059;52.218;5.172;2023-05-14T20:08:25;100149.22;;;15.16;100.00
65173;BME280;69059;52.218;5.172;2023-05-14T20:10:54;100142.00;;;15.12;100.00
65173;BME280;69059;52.218;5.172;2023-05-14T20:13:22;100121.53;;;15.02;100.00
65173;BME280;69059;52.218;5.172;2023-05-14T20:15:50;100116.25;;;15.02;100.00
65173;BME280;69059;52.218;5.172;2023-05-14T20:18:20;100097.72;;;14.97;100.00
65173;BME280;69059;52.218;5.172;2023-05-14T20:20:48;100086.28;;;14.91;100.00
65173;BME280;69059;52.218;5.172;2023-05-14T20:23:16;100072.78;;;14.88;100.00
65173;BME280;69059;52.218;5.172;2023-05-14T20:25:45;100057.56;;;14.78;100.00
65173;BME280;69059;52.218;5.172;2023-05-14T20:28:13;100049.47;;;14.80;100.00
65173;BME280;69059;52.218;5.172;2023-05-14T20:30:41;100032.19;;;14.72;100.00
65173;BME280;69059;52.218;5.172;2023-05-14T20:33:08;100008.94;;;14.57;100.00
65173;BME280;69059;52.218;5.172;2023-05-14T20:35:38;100001.31;;;14.56;100.00
65173;BME280;69059;52.218;5.172;2023-05-14T20:38:09;100003.16;;;14.55;100.00
65173;BME280;69059;52.218;5.172;2023-05-14T20:40:38;99998.91;;;14.54;100.00
65173;BME280;69059;52.218;5.172;2023-05-14T20:43:07;100011.03;;;14.55;100.00
65173;BME280;69059;52.218;5.172;2023-05-14T20:45:35;100013.72;;;14.49;100.00
65173;BME280;69059;52.218;5.172;2023-05-14T20:48:04;100018.88;;;14.44;100.00
65173;BME280;69059;52.218;5.172;2023-05-14T20:50:35;100005.16;;;14.42;100.00
65173;BME280;69059;52.218;5.172;2023-05-14T20:53:03;99997.50;;;14.40;100.00
65173;BME280;69059;52.218;5.172;2023-05-14T20:55:31;99993.09;;;14.34;100.00
65173;BME280;69059;52.218;5.172;2023-05-14T20:57:59;99988.75;;;14.28;100.00
65173;BME280;69059;52.218;5.172;2023-05-14T21:00:28;99977.06;;;14.24;100.00
65173;BME280;69059;52.218;5.172;2023-05-14T21:02:56;99994.44;;;14.25;100.00
65173;BME280;69059;52.218;5.172;2023-05-14T21:05:25;99978.41;;;14.15;100.00
65173;BME280;69059;52.218;5.172;2023-05-14T21:07:53;99980.53;;;14.06;100.00
65173;BME280;69059;52.218;5.172;2023-05-14T21:10:21;99989.44;;;14.05;100.00
65173;BME280;69059;52.218;5.172;2023-05-14T21:12:49;99994.31;;;14.02;100.00
65173;BME280;69059;52.218;5.172;2023-05-14T21:15:17;99994.53;;;14.00;100.00
65173;BME280;69059;52.218;5.172;2023-05-14T21:17:47;99983.56;;;13.91;100.00
65173;BME280;69059;52.218;5.172;2023-05-14T21:20:15;99977.72;;;13.89;100.00
65173;BME280;69059;52.218;5.172;2023-05-14T21:22:43;99971.94;;;13.81;100.00
65173;BME280;69059;52.218;5.172;2023-05-14T21:25:11;99984.50;;;13.79;100.00
65173;BME280;69059;52.218;5.172;2023-05-14T21:27:39;99969.25;;;13.69;100.00
65173;BME280;69059;52.218;5.172;2023-05-14T21:30:07;99971.09;;;13.69;100.00
65173;BME280;69059;52.218;5.172;2023-05-14T21:32:35;99960.25;;;13.65;100.00
65173;BME280;69059;52.218;5.172;2023-05-14T21:35:05;99965.13;;;13.61;100.00
65173;BME280;69059;52.218;5.172;2023-05-14T21:37:33;99952.44;;;13.58;100.00
65173;BME280;69059;52.218;5.172;2023-05-14T21:40:01;99952.09;;;13.55;100.00
65173;BME280;69059;52.218;5.172;2023-05-14T21:42:29;99946.31;;;13.46;100.00
65173;BME280;69059;52.218;5.172;2023-05-14T21:44:56;99919.16;;;13.41;100.00
65173;BME280;69059;52.218;5.172;2023-05-14T21:47:24;99916.09;;;13.44;100.00
65173;BME280;69059;52.218;5.172;2023-05-14T21:49:52;99909.03;;;13.44;100.00
65173;BME280;69059;52.218;5.172;2023-05-14T21:52:22;99910.28;;;13.42;100.00
65173;BME280;69059;52.218;5.172;2023-05-14T21:54:49;99903.66;;;13.39;100.00
65173;BME280;69059;52.218;5.172;2023-05-14T21:57:17;99895.19;;;13.37;100.00
65173;BME280;69059;52.218;5.172;2023-05-14T21:59:48;99894.59;;;13.35;100.00
65173;BME280;69059;52.218;5.172;2023-05-14T22:02:15;99884.94;;;13.36;100.00
65173;BME280;69059;52.218;5.172;2023-05-14T22:04:43;99875.09;;;13.31;100.00
65173;BME280;69059;52.218;5.172;2023-05-14T22:07:12;99867.22;;;13.31;100.00
65173;BME280;69059;52.218;5.172;2023-05-14T22:09:41;99876.78;;;13.25;100.00
65173;BME280;69059;52.218;5.172;2023-05-14T22:12:11;99859.66;;;13.23;100.00
65173;BME280;69059;52.218;5.172;2023-05-14T22:14:39;99854.84;;;13.20;100.00
65173;BME280;69059;52.218;5.172;2023-05-14T22:17:07;99854.84;;;13.20;100.00
65173;BME280;69059;52.218;5.172;2023-05-14T22:19:35;99847.44;;;13.17;100.00
65173;BME280;69059;52.218;5.172;2023-05-14T22:22:03;99832.06;;;13.20;100.00
65173;BME280;69059;52.218;5.172;2023-05-14T22:24:30;99832.50;;;13.17;100.00
65173;BME280;69059;52.218;5.172;2023-05-14T22:26:59;99821.47;;;13.15;100.00
65173;BME280;69059;52.218;5.172;2023-05-14T22:29:27;99810.97;;;13.15;100.00
65173;BME280;69059;52.218;5.172;2023-05-14T22:31:55;99805.13;;;13.13;100.00
65173;BME280;69059;52.218;5.172;2023-05-14T22:34:23;99800.53;;;13.09;100.00
65173;BME280;69059;52.218;5.172;2023-05-14T22:36:51;99798.91;;;13.08;100.00
65173;BME280;69059;52.218;5.172;2023-05-14T22:39:18;99782.97;;;13.09;100.00
65173;BME280;69059;52.218;5.172;2023-05-14T22:41:46;99777.97;;;13.08;100.00